sensor_id;sensor_type;location;lat;lon;timestamp;pressure;altitude;pressure_sealevel;temperature;humidity
74722;BME280;63470;49.826;6.740;2022-09-13T00:00:54;99734.93;;;13.46;57.17
74722;BME280;63470;49.826;6.740;2022-09-13T00:03:24;99733.19;;;13.46;57.19
74722;BME280;63470;49.826;6.740;2022-09-13T00:05:54;99732.31;;;13.49;57.15
74722;BME280;63470;49.826;6.740;2022-09-13T00:08:25;99733.22;;;13.50;57.14
74722;BME280;63470;49.826;6.740;2022-09-13T00:10:55;99737.18;;;13.48;57.21
74722;BME280;63470;49.826;6.740;2022-09-13T00:13:26;99732.55;;;13.47;57.22
74722;BME280;63470;49.826;6.740;2022-09-13T00:15:58;99724.98;;;13.48;57.20
74722;BME280;63470;49.826;6.740;2022-09-13T00:18:27;99740.41;;;13.45;57.25
74722;BME280;63470;49.826;6.740;2022-09-13T00:21:04;99737.95;;;13.41;57.30
74722;BME280;63470;49.826;6.740;2022-09-13T00:23:28;99738.52;;;13.36;57.33
74722;BME280;63470;49.826;6.740;2022-09-13T00:26:03;99748.12;;;13.32;57.37
74722;BME280;63470;49.826;6.740;2022-09-13T00:28:29;99745.95;;;13.29;57.35
74722;BME280;63470;49.826;6.740;2022-09-13T00:31:01;99748.07;;;13.29;57.34
74722;BME280;63470;49.826;6.740;2022-09-13T00:33:31;99751.03;;;13.27;57.33
74722;BME280;63470;49.826;6.740;2022-09-13T00:36:06;99756.16;;;13.25;57.35
74722;BME280;63470;49.826;6.740;2022-09-13T00:38:33;99758.42;;;13.21;57.36
74722;BME280;63470;49.826;6.740;2022-09-13T00:41:07;99768.82;;;13.18;57.39
74722;BME280;63470;49.826;6.740;2022-09-13T00:43:53;99771.19;;;13.11;57.50
74722;BME280;63470;49.826;6.740;2022-09-13T00:46:03;99769.93;;;13.09;57.55
74722;BME280;63470;49.826;6.740;2022-09-13T00:48:35;99770.86;;;13.14;57.48
74722;BME280;63470;49.826;6.740;2022-09-13T00:51:05;99770.53;;;13.16;57.45
74722;BME280;63470;49.826;6.740;2022-09-13T00:53:38;99772.09;;;13.17;57.44
74722;BME280;63470;49.826;6.740;2022-09-13T00:56:24;99777.17;;;13.18;57.45
74722;BME280;63470;49.826;6.740;2022-09-13T00:58:58;99778.22;;;13.21;57.40
74722;BME280;63470;49.826;6.740;2022-09-13T01:01:08;99778.22;;;13.24;57.34
74722;BME280;63470;49.826;6.740;2022-09-13T01:03:37;99774.41;;;13.26;57.32
74722;BME280;63470;49.826;6.740;2022-09-13T01:06:16;99779.90;;;13.28;57.33
74722;BME280;63470;49.826;6.740;2022-09-13T01:08:39;99790.65;;;13.33;57.27
74722;BME280;63470;49.826;6.740;2022-09-13T01:11:15;99789.76;;;13.40;57.28
74722;BME280;63470;49.826;6.740;2022-09-13T01:13:38;99784.65;;;13.46;57.27
74722;BME280;63470;49.826;6.740;2022-09-13T01:16:08;99779.16;;;13.54;57.23
74722;BME280;63470;49.826;6.740;2022-09-13T01:18:38;99770.63;;;13.61;57.11
74722;BME280;63470;49.826;6.740;2022-09-13T01:26:51;99771.12;;;13.75;56.93
74722;BME280;63470;49.826;6.740;2022-09-13T01:29:09;99756.39;;;13.81;56.83
74722;BME280;63470;49.826;6.740;2022-09-13T01:31:27;99765.27;;;13.83;56.84
74722;BME280;63470;49.826;6.740;2022-09-13T01:33:55;99767.30;;;13.86;56.85
74722;BME280;63470;49.826;6.740;2022-09-13T01:36:30;99766.38;;;13.89;56.83
74722;BME280;63470;49.826;6.740;2022-09-13T01:38:58;99769.53;;;13.91;56.85
74722;BME280;63470;49.826;6.740;2022-09-13T01:41:20;99765.89;;;13.95;56.84
74722;BME280;63470;49.826;6.740;2022-09-13T01:48:54;99774.57;;;14.00;56.80
74722;BME280;63470;49.826;6.740;2022-09-13T01:51:33;99775.70;;;14.01;56.83
74722;BME280;63470;49.826;6.740;2022-09-13T01:56:32;99776.06;;;14.02;56.85
74722;BME280;63470;49.826;6.740;2022-09-13T01:58:57;99776.45;;;14.01;56.84
74722;BME280;63470;49.826;6.740;2022-09-13T02:01:32;99781.75;;;13.97;56.97
74722;BME280;63470;49.826;6.740;2022-09-13T02:03:59;99778.03;;;13.92;57.05
74722;BME280;63470;49.826;6.740;2022-09-13T02:06:21;99772.74;;;13.87;57.07
74722;BME280;63470;49.826;6.740;2022-09-13T02:08:50;99768.31;;;13.79;57.13
74722;BME280;63470;49.826;6.740;2022-09-13T02:11:17;99768.88;;;13.72;57.29
74722;BME280;63470;49.826;6.740;2022-09-13T02:14:14;99777.49;;;13.68;57.44
74722;BME280;63470;49.826;6.740;2022-09-13T02:16:25;99779.30;;;13.64;57.53
74722;BME280;63470;49.826;6.740;2022-09-13T02:18:53;99778.11;;;13.63;57.53
74722;BME280;63470;49.826;6.740;2022-09-13T02:21:28;99767.42;;;13.62;57.48
74722;BME280;63470;49.826;6.740;2022-09-13T02:23:53;99770.16;;;13.60;57.48
74722;BME280;63470;49.826;6.740;2022-09-13T02:26:23;99772.55;;;13.58;57.45
74722;BME280;63470;49.826;6.740;2022-09-13T02:28:53;99763.47;;;13.52;57.49
74722;BME280;63470;49.826;6.740;2022-09-13T02:31:27;99760.95;;;13.46;57.61
74722;BME280;63470;49.826;6.740;2022-09-13T02:33:56;99751.00;;;13.44;57.68
74722;BME280;63470;49.826;6.740;2022-09-13T02:36:26;99739.16;;;13.43;57.65
74722;BME280;63470;49.826;6.740;2022-09-13T02:39:04;99732.25;;;13.45;57.63
74722;BME280;63470;49.826;6.740;2022-09-13T02:41:35;99724.95;;;13.42;57.68
74722;BME280;63470;49.826;6.740;2022-09-13T02:44:01;99720.18;;;13.43;57.70
74722;BME280;63470;49.826;6.740;2022-09-13T02:49:03;99711.00;;;13.47;57.60
74722;BME280;63470;49.826;6.740;2022-09-13T02:51:54;99711.23;;;13.48;57.63
74722;BME280;63470;49.826;6.740;2022-09-13T02:56:45;99716.38;;;13.48;57.58
74722;BME280;63470;49.826;6.740;2022-09-13T02:59:16;99718.92;;;13.46;57.62
74722;BME280;63470;49.826;6.740;2022-09-13T03:01:26;99719.84;;;13.46;57.54
74722;BME280;63470;49.826;6.740;2022-09-13T03:03:57;99715.19;;;13.47;57.54
74722;BME280;63470;49.826;6.740;2022-09-13T03:06:28;99717.44;;;13.46;57.61
74722;BME280;63470;49.826;6.740;2022-09-13T03:09:02;99719.70;;;13.47;57.61
74722;BME280;63470;49.826;6.740;2022-09-13T03:16:47;99713.08;;;13.52;57.59
74722;BME280;63470;49.826;6.740;2022-09-13T03:21:53;99706.88;;;13.61;57.58
74722;BME280;63470;49.826;6.740;2022-09-13T03:24:23;99709.98;;;13.67;57.50
74722;BME280;63470;49.826;6.740;2022-09-13T03:26:38;99708.91;;;13.71;57.46
74722;BME280;63470;49.826;6.740;2022-09-13T03:29:30;99689.70;;;13.77;57.36
74722;BME280;63470;49.826;6.740;2022-09-13T03:31:35;99680.48;;;13.81;57.31
74722;BME280;63470;49.826;6.740;2022-09-13T03:34:15;99676.02;;;13.85;57.34
74722;BME280;63470;49.826;6.740;2022-09-13T03:36:44;99658.62;;;13.91;57.32
74722;BME280;63470;49.826;6.740;2022-09-13T03:39:10;99655.98;;;13.97;57.32
74722;BME280;63470;49.826;6.740;2022-09-13T03:41:38;99660.75;;;14.02;57.32
74722;BME280;63470;49.826;6.740;2022-09-13T03:44:07;99663.41;;;14.07;57.30
74722;BME280;63470;49.826;6.740;2022-09-13T03:46:38;99657.77;;;14.11;57.25
74722;BME280;63470;49.826;6.740;2022-09-13T03:49:07;99648.55;;;14.11;57.21
74722;BME280;63470;49.826;6.740;2022-09-13T03:51:36;99643.41;;;14.13;57.21
74722;BME280;63470;49.826;6.740;2022-09-13T03:54:09;99650.45;;;14.16;57.24
74722;BME280;63470;49.826;6.740;2022-09-13T03:56:36;99646.07;;;14.19;57.26
74722;BME280;63470;49.826;6.740;2022-09-13T03:59:06;99651.57;;;14.24;57.25
74722;BME280;63470;49.826;6.740;2022-09-13T04:01:37;99650.16;;;14.29;57.20
74722;BME280;63470;49.826;6.740;2022-09-13T04:04:08;99658.53;;;14.36;57.16
74722;BME280;63470;49.826;6.740;2022-09-13T04:06:38;99667.13;;;14.42;57.17
74722;BME280;63470;49.826;6.740;2022-09-13T04:09:08;99675.73;;;14.50;57.09
74722;BME280;63470;49.826;6.740;2022-09-13T04:11:40;99681.98;;;14.55;57.02
74722;BME280;63470;49.826;6.740;2022-09-13T04:14:10;99692.54;;;14.62;56.96
74722;BME280;63470;49.826;6.740;2022-09-13T04:16:39;99689.03;;;14.67;56.94
74722;BME280;63470;49.826;6.740;2022-09-13T04:19:10;99684.90;;;14.70;56.93
74722;BME280;63470;49.826;6.740;2022-09-13T04:21:42;99680.05;;;14.72;56.91
74722;BME280;63470;49.826;6.740;2022-09-13T04:24:11;99678.66;;;14.75;56.92
74722;BME280;63470;49.826;6.740;2022-09-13T04:26:42;99672.55;;;14.78;56.94
74722;BME280;63470;49.826;6.740;2022-09-13T04:29:13;99670.09;;;14.81;56.98
74722;BME280;63470;49.826;6.740;2022-09-13T04:31:47;99680.22;;;14.83;57.03
74722;BME280;63470;49.826;6.740;2022-09-13T04:34:14;99680.88;;;14.85;57.10
74722;BME280;63470;49.826;6.740;2022-09-13T04:36:46;99678.38;;;14.88;57.08
74722;BME280;63470;49.826;6.740;2022-09-13T04:39:15;99679.03;;;14.90;57.08
74722;BME280;63470;49.826;6.740;2022-09-13T04:41:48;99687.86;;;14.91;57.13
74722;BME280;63470;49.826;6.740;2022-09-13T04:44:16;99697.25;;;14.91;57.16
74722;BME280;63470;49.826;6.740;2022-09-13T04:46:48;99704.84;;;14.91;57.21
74722;BME280;63470;49.826;6.740;2022-09-13T04:49:18;99699.86;;;14.91;57.26
74722;BME280;63470;49.826;6.740;2022-09-13T04:51:47;99706.55;;;14.93;57.24
74722;BME280;63470;49.826;6.740;2022-09-13T04:54:18;99709.20;;;14.95;57.26
74722;BME280;63470;49.826;6.740;2022-09-13T04:56:49;99719.22;;;14.97;57.29
74722;BME280;63470;49.826;6.740;2022-09-13T04:59:19;99715.09;;;14.99;57.23
74722;BME280;63470;49.826;6.740;2022-09-13T05:01:50;99719.12;;;15.03;57.22
74722;BME280;63470;49.826;6.740;2022-09-13T05:04:20;99719.22;;;15.04;57.23
74722;BME280;63470;49.826;6.740;2022-09-13T05:06:50;99713.50;;;15.07;57.19
74722;BME280;63470;49.826;6.740;2022-09-13T05:09:21;99712.41;;;15.12;57.14
74722;BME280;63470;49.826;6.740;2022-09-13T05:11:51;99712.23;;;15.14;57.09
74722;BME280;63470;49.826;6.740;2022-09-13T05:14:22;99718.29;;;15.16;57.11
74722;BME280;63470;49.826;6.740;2022-09-13T05:16:52;99714.56;;;15.19;57.12
74722;BME280;63470;49.826;6.740;2022-09-13T05:19:23;99717.27;;;15.23;57.08
74722;BME280;63470;49.826;6.740;2022-09-13T05:21:53;99713.14;;;15.25;57.09
74722;BME280;63470;49.826;6.740;2022-09-13T05:24:24;99715.68;;;15.28;57.05
74722;BME280;63470;49.826;6.740;2022-09-13T05:26:54;99712.80;;;15.31;57.02
74722;BME280;63470;49.826;6.740;2022-09-13T05:29:25;99709.19;;;15.34;57.08
74722;BME280;63470;49.826;6.740;2022-09-13T05:31:55;99711.16;;;15.37;57.16
74722;BME280;63470;49.826;6.740;2022-09-13T05:34:26;99713.50;;;15.40;57.25
74722;BME280;63470;49.826;6.740;2022-09-13T05:36:56;99715.42;;;15.44;57.20
74722;BME280;63470;49.826;6.740;2022-09-13T05:39:27;99712.73;;;15.50;57.11
74722;BME280;63470;49.826;6.740;2022-09-13T05:44:28;99707.95;;;15.59;57.00
74722;BME280;63470;49.826;6.740;2022-09-13T05:46:59;99712.36;;;15.59;56.98
74722;BME280;63470;49.826;6.740;2022-09-13T05:49:29;99720.94;;;15.59;57.03
74722;BME280;63470;49.826;6.740;2022-09-13T05:52:00;99724.02;;;15.59;57.00
74722;BME280;63470;49.826;6.740;2022-09-13T05:54:31;99739.33;;;15.59;57.04
74722;BME280;63470;49.826;6.740;2022-09-13T05:57:01;99746.39;;;15.59;57.09
74722;BME280;63470;49.826;6.740;2022-09-13T05:59:32;99759.13;;;15.62;57.14
74722;BME280;63470;49.826;6.740;2022-09-13T06:02:02;99760.28;;;15.64;57.12
74722;BME280;63470;49.826;6.740;2022-09-13T06:04:35;99756.52;;;15.66;57.16
74722;BME280;63470;49.826;6.740;2022-09-13T06:07:03;99761.75;;;15.68;57.17
74722;BME280;63470;49.826;6.740;2022-09-13T06:09:37;99762.61;;;15.70;57.15
74722;BME280;63470;49.826;6.740;2022-09-13T06:12:04;99766.72;;;15.69;57.26
74722;BME280;63470;49.826;6.740;2022-09-13T06:14:35;99758.40;;;15.69;57.26
74722;BME280;63470;49.826;6.740;2022-09-13T06:17:05;99748.17;;;15.69;57.28
74722;BME280;63470;49.826;6.740;2022-09-13T06:19:36;99739.62;;;15.68;57.29
74722;BME280;63470;49.826;6.740;2022-09-13T06:22:06;99747.96;;;15.70;57.30
74722;BME280;63470;49.826;6.740;2022-09-13T06:24:41;99731.81;;;15.72;57.29
74722;BME280;63470;49.826;6.740;2022-09-13T06:27:07;99732.70;;;15.76;57.31
74722;BME280;63470;49.826;6.740;2022-09-13T06:29:40;99731.69;;;15.82;57.29
74722;BME280;63470;49.826;6.740;2022-09-13T06:32:11;99734.55;;;15.90;57.24
74722;BME280;63470;49.826;6.740;2022-09-13T06:34:39;99729.94;;;15.97;57.16
74722;BME280;63470;49.826;6.740;2022-09-13T06:37:09;99721.91;;;16.03;57.14
74722;BME280;63470;49.826;6.740;2022-09-13T06:39:40;99715.36;;;16.10;57.12
74722;BME280;63470;49.826;6.740;2022-09-13T06:42:10;99704.67;;;16.16;57.12
74722;BME280;63470;49.826;6.740;2022-09-13T06:44:41;99694.00;;;16.21;57.13
74722;BME280;63470;49.826;6.740;2022-09-13T06:47:11;99695.36;;;16.30;57.08
74722;BME280;63470;49.826;6.740;2022-09-13T06:49:42;99690.78;;;16.41;57.02
74722;BME280;63470;49.826;6.740;2022-09-13T06:52:12;99692.58;;;16.48;56.92
74722;BME280;63470;49.826;6.740;2022-09-13T06:54:43;99684.32;;;16.53;56.89
74722;BME280;63470;49.826;6.740;2022-09-13T06:57:14;99681.43;;;16.59;56.90
74722;BME280;63470;49.826;6.740;2022-09-13T06:59:44;99680.61;;;16.68;56.86
74722;BME280;63470;49.826;6.740;2022-09-13T07:02:17;99689.39;;;16.83;56.70
74722;BME280;63470;49.826;6.740;2022-09-13T07:04:45;99690.30;;;16.98;56.54
74722;BME280;63470;49.826;6.740;2022-09-13T07:07:15;99684.71;;;17.14;56.43
74722;BME280;63470;49.826;6.740;2022-09-13T07:09:46;99683.51;;;17.28;56.32
74722;BME280;63470;49.826;6.740;2022-09-13T07:12:16;99689.45;;;17.45;56.18
74722;BME280;63470;49.826;6.740;2022-09-13T07:14:47;99679.70;;;17.62;56.02
74722;BME280;63470;49.826;6.740;2022-09-13T07:17:17;99683.80;;;17.85;55.89
74722;BME280;63470;49.826;6.740;2022-09-13T07:19:48;99688.95;;;18.13;55.72
74722;BME280;63470;49.826;6.740;2022-09-13T07:22:19;99697.69;;;18.30;55.59
74722;BME280;63470;49.826;6.740;2022-09-13T07:24:49;99701.36;;;18.38;55.62
74722;BME280;63470;49.826;6.740;2022-09-13T07:27:20;99699.38;;;18.48;55.62
74722;BME280;63470;49.826;6.740;2022-09-13T07:29:50;99698.66;;;18.56;55.58
74722;BME280;63470;49.826;6.740;2022-09-13T07:32:22;99698.10;;;18.61;55.57
74722;BME280;63470;49.826;6.740;2022-09-13T07:34:52;99694.59;;;18.66;55.58
74722;BME280;63470;49.826;6.740;2022-09-13T07:37:25;99702.84;;;18.74;55.54
74722;BME280;63470;49.826;6.740;2022-09-13T07:39:53;99702.26;;;18.87;55.44
74722;BME280;63470;49.826;6.740;2022-09-13T07:42:23;99701.09;;;19.00;55.44
74722;BME280;63470;49.826;6.740;2022-09-13T07:44:54;99709.16;;;19.13;55.40
74722;BME280;63470;49.826;6.740;2022-09-13T07:47:24;99715.62;;;19.25;55.37
74722;BME280;63470;49.826;6.740;2022-09-13T07:49:55;99716.66;;;19.38;55.28
74722;BME280;63470;49.826;6.740;2022-09-13T07:52:27;99713.09;;;19.51;55.19
74722;BME280;63470;49.826;6.740;2022-09-13T07:54:58;99712.50;;;19.61;55.16
74722;BME280;63470;49.826;6.740;2022-09-13T07:57:27;99708.08;;;19.70;55.10
74722;BME280;63470;49.826;6.740;2022-09-13T07:59:57;99707.16;;;19.78;55.07
74722;BME280;63470;49.826;6.740;2022-09-13T08:02:28;99709.41;;;19.82;55.10
74722;BME280;63470;49.826;6.740;2022-09-13T08:04:58;99711.88;;;19.87;55.15
74722;BME280;63470;49.826;6.740;2022-09-13T08:07:29;99706.29;;;19.90;55.23
74722;BME280;63470;49.826;6.740;2022-09-13T08:10:00;99707.23;;;19.99;55.13
74722;BME280;63470;49.826;6.740;2022-09-13T08:12:30;99702.12;;;20.05;55.06
74722;BME280;63470;49.826;6.740;2022-09-13T08:15:01;99690.75;;;20.14;55.06
74722;BME280;63470;49.826;6.740;2022-09-13T08:17:31;99686.16;;;20.29;54.92
74722;BME280;63470;49.826;6.740;2022-09-13T08:20:02;99686.94;;;20.50;54.72
74722;BME280;63470;49.826;6.740;2022-09-13T08:22:33;99694.59;;;20.77;54.42
74722;BME280;63470;49.826;6.740;2022-09-13T08:25:04;99701.73;;;21.02;54.21
74722;BME280;63470;49.826;6.740;2022-09-13T08:27:34;99712.72;;;21.21;54.03
74722;BME280;63470;49.826;6.740;2022-09-13T08:30:05;99716.24;;;21.37;53.91
74722;BME280;63470;49.826;6.740;2022-09-13T08:32:34;99712.91;;;21.41;53.96
74722;BME280;63470;49.826;6.740;2022-09-13T08:35:05;99715.41;;;21.37;54.09
74722;BME280;63470;49.826;6.740;2022-09-13T08:37:35;99716.62;;;21.17;54.43
74722;BME280;63470;49.826;6.740;2022-09-13T08:40:06;99720.37;;;20.94;54.82
74722;BME280;63470;49.826;6.740;2022-09-13T08:42:53;99717.20;;;20.75;55.18
74722;BME280;63470;49.826;6.740;2022-09-13T08:45:09;99717.96;;;20.57;55.38
74722;BME280;63470;49.826;6.740;2022-09-13T08:47:40;99724.33;;;20.38;55.61
74722;BME280;63470;49.826;6.740;2022-09-13T08:55:33;99747.50;;;19.94;56.06
74722;BME280;63470;49.826;6.740;2022-09-13T08:57:45;99734.06;;;19.91;56.03
74722;BME280;63470;49.826;6.740;2022-09-13T09:00:19;99733.41;;;19.92;55.93
74722;BME280;63470;49.826;6.740;2022-09-13T09:03:01;99730.14;;;19.92;55.86
74722;BME280;63470;49.826;6.740;2022-09-13T09:05:17;99729.21;;;19.91;55.81
74722;BME280;63470;49.826;6.740;2022-09-13T09:07:46;99732.84;;;19.93;55.78
74722;BME280;63470;49.826;6.740;2022-09-13T09:10:19;99730.65;;;19.96;55.73
74722;BME280;63470;49.826;6.740;2022-09-13T09:12:49;99735.53;;;19.97;55.67
74722;BME280;63470;49.826;6.740;2022-09-13T09:15:17;99749.91;;;19.92;55.66
74722;BME280;63470;49.826;6.740;2022-09-13T09:17:52;99776.58;;;19.85;55.70
74722;BME280;63470;49.826;6.740;2022-09-13T09:20:41;99785.12;;;19.72;55.81
74722;BME280;63470;49.826;6.740;2022-09-13T09:22:47;99781.00;;;19.56;56.04
74722;BME280;63470;49.826;6.740;2022-09-13T09:25:17;99778.16;;;19.41;56.27
74722;BME280;63470;49.826;6.740;2022-09-13T09:27:46;99764.88;;;19.30;56.36
74722;BME280;63470;49.826;6.740;2022-09-13T09:30:17;99757.92;;;19.22;56.42
74722;BME280;63470;49.826;6.740;2022-09-13T09:33:04;99762.44;;;19.22;56.46
74722;BME280;63470;49.826;6.740;2022-09-13T09:35:45;99774.08;;;19.27;56.43
74722;BME280;63470;49.826;6.740;2022-09-13T09:38:18;99779.62;;;19.40;56.31
74722;BME280;63470;49.826;6.740;2022-09-13T09:40:20;99783.18;;;19.59;56.04
74722;BME280;63470;49.826;6.740;2022-09-13T09:42:50;99780.45;;;19.72;55.92
74722;BME280;63470;49.826;6.740;2022-09-13T09:45:29;99800.91;;;19.69;56.05
74722;BME280;63470;49.826;6.740;2022-09-13T09:47:53;99794.47;;;19.59;56.27
74722;BME280;63470;49.826;6.740;2022-09-13T09:50:28;99764.84;;;19.48;56.40
74722;BME280;63470;49.826;6.740;2022-09-13T09:53:30;99753.47;;;19.34;56.45
74722;BME280;63470;49.826;6.740;2022-09-13T09:55:29;99741.23;;;19.10;56.48
74722;BME280;63470;49.826;6.740;2022-09-13T09:58:06;99726.14;;;18.83;56.61
74722;BME280;63470;49.826;6.740;2022-09-13T10:00:27;99731.82;;;18.64;56.76
74722;BME280;63470;49.826;6.740;2022-09-13T10:02:59;99743.30;;;18.61;56.71
74722;BME280;63470;49.826;6.740;2022-09-13T10:05:28;99739.59;;;18.59;56.62
74722;BME280;63470;49.826;6.740;2022-09-13T10:07:59;99730.52;;;18.55;56.62
74722;BME280;63470;49.826;6.740;2022-09-13T10:10:43;99733.50;;;18.58;56.57
74722;BME280;63470;49.826;6.740;2022-09-13T10:12:57;99728.72;;;18.62;56.52
74722;BME280;63470;49.826;6.740;2022-09-13T10:15:30;99722.90;;;18.67;56.49
74722;BME280;63470;49.826;6.740;2022-09-13T10:18:12;99710.01;;;18.72;56.48
74722;BME280;63470;49.826;6.740;2022-09-13T10:20:29;99695.95;;;18.72;56.46
74722;BME280;63470;49.826;6.740;2022-09-13T10:23:19;99702.64;;;18.79;56.34
74722;BME280;63470;49.826;6.740;2022-09-13T10:25:31;99701.76;;;18.91;56.19
74722;BME280;63470;49.826;6.740;2022-09-13T10:28:03;99697.03;;;19.03;56.10
74722;BME280;63470;49.826;6.740;2022-09-13T10:30:41;99698.45;;;19.12;56.04
74722;BME280;63470;49.826;6.740;2022-09-13T10:33:03;99699.33;;;19.23;55.92
74722;BME280;63470;49.826;6.740;2022-09-13T10:35:32;99695.41;;;19.34;55.81
74722;BME280;63470;49.826;6.740;2022-09-13T10:38:02;99689.59;;;19.43;55.70
74722;BME280;63470;49.826;6.740;2022-09-13T10:40:33;99684.74;;;19.56;55.47
74722;BME280;63470;49.826;6.740;2022-09-13T10:43:12;99682.09;;;19.70;55.30
74722;BME280;63470;49.826;6.740;2022-09-13T10:45:34;99678.36;;;19.84;55.09
74722;BME280;63470;49.826;6.740;2022-09-13T10:48:10;99672.38;;;19.97;55.00
74722;BME280;63470;49.826;6.740;2022-09-13T10:50:36;99674.17;;;20.14;54.88
74722;BME280;63470;49.826;6.740;2022-09-13T10:53:29;99673.48;;;20.33;54.74
74722;BME280;63470;49.826;6.740;2022-09-13T10:55:37;99668.27;;;20.49;54.55
74722;BME280;63470;49.826;6.740;2022-09-13T10:58:11;99668.01;;;20.72;54.37
74722;BME280;63470;49.826;6.740;2022-09-13T11:08:26;99635.75;;;23.51;52.60
74722;BME280;63470;49.826;6.740;2022-09-13T11:11:03;99632.45;;;23.66;52.65
74722;BME280;63470;49.826;6.740;2022-09-13T11:13:27;99633.64;;;23.78;52.80
74722;BME280;63470;49.826;6.740;2022-09-13T11:15:58;99627.56;;;24.02;52.89
74722;BME280;63470;49.826;6.740;2022-09-13T11:18:26;99625.67;;;24.29;52.77
74722;BME280;63470;49.826;6.740;2022-09-13T11:26:10;99619.34;;;23.77;53.90
74722;BME280;63470;49.826;6.740;2022-09-13T11:33:40;99611.75;;;25.00;52.70
74722;BME280;63470;49.826;6.740;2022-09-13T11:36:16;99601.23;;;25.80;51.96
74722;BME280;63470;49.826;6.740;2022-09-13T11:46:05;99599.80;;;27.23;51.43
74722;BME280;63470;49.826;6.740;2022-09-13T11:48:41;99594.20;;;27.24;51.76
74722;BME280;63470;49.826;6.740;2022-09-13T11:50:58;99585.50;;;27.39;51.89
74722;BME280;63470;49.826;6.740;2022-09-13T11:55:50;99582.08;;;27.41;52.18
74722;BME280;63470;49.826;6.740;2022-09-13T11:58:24;99582.83;;;27.19;52.54
74722;BME280;63470;49.826;6.740;2022-09-13T12:00:49;99582.83;;;26.83;53.12
74722;BME280;63470;49.826;6.740;2022-09-13T12:03:20;99579.66;;;26.35;53.83
74722;BME280;63470;49.826;6.740;2022-09-13T12:05:54;99572.28;;;26.04;54.21
74722;BME280;63470;49.826;6.740;2022-09-13T12:10:54;99571.12;;;25.52;54.60
74722;BME280;63470;49.826;6.740;2022-09-13T12:13:21;99573.92;;;25.44;54.53
74722;BME280;63470;49.826;6.740;2022-09-13T12:15:52;99572.48;;;25.42;54.38
74722;BME280;63470;49.826;6.740;2022-09-13T12:18:39;99565.55;;;25.44;54.17
74722;BME280;63470;49.826;6.740;2022-09-13T12:20:52;99559.12;;;25.30;54.36
74722;BME280;63470;49.826;6.740;2022-09-13T12:23:32;99560.44;;;25.22;54.42
74722;BME280;63470;49.826;6.740;2022-09-13T12:25:58;99556.86;;;25.23;54.26
74722;BME280;63470;49.826;6.740;2022-09-13T12:28:27;99553.36;;;25.26;54.09
74722;BME280;63470;49.826;6.740;2022-09-13T12:30:59;99544.66;;;25.16;54.10
74722;BME280;63470;49.826;6.740;2022-09-13T12:33:22;99542.72;;;25.11;54.13
74722;BME280;63470;49.826;6.740;2022-09-13T12:39:00;99537.57;;;25.13;53.96
74722;BME280;63470;49.826;6.740;2022-09-13T12:44:04;99533.96;;;25.03;54.00
74722;BME280;63470;49.826;6.740;2022-09-13T12:46:12;99536.34;;;24.99;53.97
74722;BME280;63470;49.826;6.740;2022-09-13T13:01:18;99537.30;;;24.07;54.82
74722;BME280;63470;49.826;6.740;2022-09-13T13:03:32;99536.92;;;24.01;54.77
74722;BME280;63470;49.826;6.740;2022-09-13T13:08:28;99530.95;;;23.98;54.66
74722;BME280;63470;49.826;6.740;2022-09-13T13:11:06;99529.64;;;24.04;54.56
74722;BME280;63470;49.826;6.740;2022-09-13T13:13:42;99529.40;;;24.09;54.45
74722;BME280;63470;49.826;6.740;2022-09-13T13:16:01;99527.95;;;24.08;54.38
74722;BME280;63470;49.826;6.740;2022-09-13T13:18:31;99523.73;;;24.01;54.41
74722;BME280;63470;49.826;6.740;2022-09-13T13:21:05;99522.55;;;23.93;54.47
74722;BME280;63470;49.826;6.740;2022-09-13T13:23:32;99520.69;;;23.80;54.60
74722;BME280;63470;49.826;6.740;2022-09-13T13:26:12;99521.55;;;23.68;54.74
74722;BME280;63470;49.826;6.740;2022-09-13T13:31:01;99516.57;;;23.44;55.03
74722;BME280;63470;49.826;6.740;2022-09-13T13:33:46;99514.70;;;23.40;55.06
74722;BME280;63470;49.826;6.740;2022-09-13T13:36:21;99514.55;;;23.41;55.01
74722;BME280;63470;49.826;6.740;2022-09-13T13:38:36;99511.14;;;23.42;54.97
74722;BME280;63470;49.826;6.740;2022-09-13T13:41:06;99507.21;;;23.45;54.88
74722;BME280;63470;49.826;6.740;2022-09-13T13:43:34;99511.27;;;23.49;54.78
74722;BME280;63470;49.826;6.740;2022-09-13T13:46:24;99509.52;;;23.51;54.78
74722;BME280;63470;49.826;6.740;2022-09-13T13:48:36;99504.66;;;23.52;54.76
74722;BME280;63470;49.826;6.740;2022-09-13T13:51:15;99502.20;;;23.51;54.77
74722;BME280;63470;49.826;6.740;2022-09-13T13:53:35;99499.41;;;23.52;54.77
74722;BME280;63470;49.826;6.740;2022-09-13T13:58:48;99498.31;;;23.58;54.66
74722;BME280;63470;49.826;6.740;2022-09-13T14:01:13;99495.84;;;23.54;54.67
74722;BME280;63470;49.826;6.740;2022-09-13T14:04:08;99491.52;;;23.48;54.74
74722;BME280;63470;49.826;6.740;2022-09-13T14:06:15;99489.68;;;23.41;54.81
74722;BME280;63470;49.826;6.740;2022-09-13T14:09:01;99493.27;;;23.31;54.96
74722;BME280;63470;49.826;6.740;2022-09-13T14:11:25;99487.92;;;23.25;55.02
74722;BME280;63470;49.826;6.740;2022-09-13T14:21:20;99467.14;;;23.21;54.94
74722;BME280;63470;49.826;6.740;2022-09-13T14:23:39;99467.56;;;23.31;54.81
74722;BME280;63470;49.826;6.740;2022-09-13T14:26:10;99468.80;;;23.41;54.72
74722;BME280;63470;49.826;6.740;2022-09-13T14:28:41;99468.66;;;23.54;54.55
74722;BME280;63470;49.826;6.740;2022-09-13T14:31:16;99471.83;;;23.62;54.43
74722;BME280;63470;49.826;6.740;2022-09-13T14:33:41;99469.21;;;23.69;54.41
74722;BME280;63470;49.826;6.740;2022-09-13T14:36:19;99471.23;;;23.73;54.35
74722;BME280;63470;49.826;6.740;2022-09-13T14:38:47;99474.58;;;23.77;54.31
74722;BME280;63470;49.826;6.740;2022-09-13T14:41:15;99476.39;;;23.78;54.27
74722;BME280;63470;49.826;6.740;2022-09-13T14:43:43;99476.49;;;23.76;54.39
74722;BME280;63470;49.826;6.740;2022-09-13T14:48:48;99472.60;;;23.60;54.60
74722;BME280;63470;49.826;6.740;2022-09-13T14:51:27;99473.30;;;23.51;54.71
74722;BME280;63470;49.826;6.740;2022-09-13T14:53:46;99471.00;;;23.46;54.76